createdAt,value
2023-06-16T00:00:48.485Z,0.89
2023-06-16T00:01:48.586Z,0.87
2023-06-16T00:02:48.629Z,0.89
2023-06-16T00:03:47.633Z,0.88
2023-06-16T00:04:48.637Z,0.88
2023-06-16T00:05:48.679Z,0.88
2023-06-16T00:06:48.724Z,0.88
2023-06-16T00:07:48.764Z,0.89
2023-06-16T00:08:48.825Z,0.88
2023-06-16T00:09:48.889Z,0.87
2023-06-16T00:10:48.890Z,0.90
2023-06-16T00:11:48.924Z,0.88
2023-06-16T00:12:48.000Z,0.89
2023-06-16T00:13:49.031Z,0.87
2023-06-16T00:14:49.054Z,0.88
2023-06-16T00:15:49.094Z,0.88
2023-06-16T00:16:49.127Z,0.88
2023-06-16T00:17:49.306Z,0.88
2023-06-16T00:18:48.216Z,0.90
2023-06-16T00:19:49.248Z,0.87
2023-06-16T00:20:49.276Z,0.89
2023-06-16T00:21:49.330Z,0.87
2023-06-16T00:22:49.720Z,0.88
2023-06-16T00:23:48.425Z,0.87
2023-06-16T00:24:49.463Z,0.87
2023-06-16T00:25:49.516Z,0.89
2023-06-16T00:26:49.555Z,0.89
2023-06-16T00:27:49.615Z,0.88
2023-06-16T00:28:48.734Z,0.88
2023-06-16T00:29:48.685Z,0.88
2023-06-16T00:30:49.786Z,0.87
2023-06-16T00:31:49.818Z,0.88
2023-06-16T00:32:49.867Z,0.88
2023-06-16T00:33:48.900Z,0.90
2023-06-16T00:34:49.952Z,0.86
2023-06-16T00:35:49.979Z,0.89
2023-06-16T00:36:50.012Z,0.88
2023-06-16T00:37:50.070Z,0.88
2023-06-16T00:38:50.090Z,0.88
2023-06-16T00:39:50.139Z,0.89
2023-06-16T00:40:50.184Z,0.87
2023-06-16T00:41:50.220Z,0.89
2023-06-16T00:42:50.307Z,0.87
2023-06-16T00:43:49.317Z,0.87
2023-06-16T00:44:50.385Z,0.88
2023-06-16T00:45:50.414Z,0.86
2023-06-16T00:46:50.494Z,0.88
2023-06-16T00:47:50.543Z,0.86
2023-06-16T00:48:50.546Z,0.88
2023-06-16T00:49:49.609Z,0.88
2023-06-16T00:50:49.658Z,0.88
2023-06-16T00:51:50.706Z,0.88
2023-06-16T00:52:50.784Z,0.88
2023-06-16T00:53:49.835Z,0.88
2023-06-16T00:54:50.889Z,0.86
2023-06-16T00:55:50.915Z,0.88
2023-06-16T00:56:50.989Z,0.88
2023-06-16T00:57:51.038Z,0.87
2023-06-16T00:58:51.089Z,0.86
2023-06-16T00:59:50.157Z,0.89
2023-06-16T01:00:50.195Z,0.88
2023-06-16T01:01:51.275Z,0.88
2023-06-16T01:02:51.417Z,0.87
2023-06-16T01:03:51.364Z,0.86
2023-06-16T01:04:51.399Z,0.88
2023-06-16T01:05:51.465Z,0.87
2023-06-16T01:06:50.490Z,0.88
2023-06-16T01:07:51.588Z,0.89
2023-06-16T01:08:51.657Z,0.88
2023-06-16T01:09:51.676Z,0.88
2023-06-16T01:10:51.723Z,0.88
2023-06-16T01:11:51.800Z,0.88
2023-06-16T01:12:51.840Z,0.88
2023-06-16T01:13:51.910Z,0.87
2023-06-16T01:14:50.943Z,0.88
2023-06-16T01:15:52.029Z,0.90
2023-06-16T01:16:52.085Z,0.87
2023-06-16T01:17:52.105Z,0.86
2023-06-16T01:18:52.169Z,0.88
2023-06-16T01:19:52.213Z,0.87
2023-06-16T01:20:52.327Z,0.87
2023-06-16T01:21:52.311Z,0.88
2023-06-16T01:22:51.405Z,0.87
2023-06-16T01:23:51.491Z,0.89
2023-06-16T01:24:52.481Z,0.86
2023-06-16T01:25:52.556Z,0.89
2023-06-16T01:26:52.560Z,0.87
2023-06-16T01:27:52.639Z,0.88
2023-06-16T01:28:52.688Z,0.88
2023-06-16T01:29:52.796Z,0.87
2023-06-16T01:30:52.772Z,0.87
2023-06-16T01:31:52.840Z,0.86
2023-06-16T01:32:52.886Z,0.87
2023-06-16T01:33:52.970Z,0.88
2023-06-16T01:34:53.015Z,0.87
2023-06-16T01:35:52.053Z,0.88
2023-06-16T01:36:53.105Z,0.87
2023-06-16T01:37:53.158Z,0.88
2023-06-16T01:38:53.235Z,0.87
2023-06-16T01:39:53.263Z,0.87
2023-06-16T01:40:52.333Z,0.85
2023-06-16T01:41:53.368Z,0.87
2023-06-16T01:42:53.459Z,0.88
2023-06-16T01:43:53.470Z,0.86
2023-06-16T01:44:53.535Z,0.87
2023-06-16T01:45:53.662Z,0.86
2023-06-16T01:46:53.736Z,0.85
2023-06-16T01:47:52.750Z,0.87
2023-06-16T01:48:52.780Z,0.87
2023-06-16T01:49:53.824Z,0.87
2023-06-16T01:50:52.879Z,0.86
2023-06-16T01:51:53.931Z,0.87
2023-06-16T01:52:54.006Z,0.86
2023-06-16T01:53:54.061Z,0.87
2023-06-16T01:54:54.141Z,0.88
2023-06-16T01:55:54.163Z,0.87
2023-06-16T01:56:54.227Z,0.86
2023-06-16T01:57:54.367Z,0.85
2023-06-16T01:58:54.327Z,0.86
2023-06-16T01:59:54.400Z,0.87
2023-06-16T02:00:54.455Z,0.85
2023-06-16T02:01:54.520Z,0.86
2023-06-16T02:02:54.702Z,0.86
2023-06-16T02:03:54.797Z,0.87
2023-06-16T02:04:53.669Z,0.87
2023-06-16T02:05:53.722Z,0.87
2023-06-16T02:06:54.784Z,0.85
2023-06-16T02:07:54.985Z,0.87
2023-06-16T02:08:55.007Z,0.85
2023-06-16T02:09:53.943Z,0.86
2023-06-16T02:10:55.029Z,0.86
2023-06-16T02:11:55.062Z,0.86
2023-06-16T02:12:55.124Z,0.86
2023-06-16T02:13:54.190Z,0.86
2023-06-16T02:14:55.255Z,0.86
2023-06-16T02:15:54.372Z,0.84
2023-06-16T02:16:54.368Z,0.86
2023-06-16T02:17:55.431Z,0.86
2023-06-16T02:18:55.546Z,0.86
2023-06-16T02:19:54.523Z,0.86
2023-06-16T02:20:55.592Z,0.84
2023-06-16T02:21:55.673Z,0.86
2023-06-16T02:22:54.720Z,0.87
2023-06-16T02:23:55.822Z,0.85
2023-06-16T02:24:55.836Z,0.84
2023-06-16T02:25:55.914Z,0.86
2023-06-16T02:26:54.975Z,0.84
2023-06-16T02:27:55.063Z,0.84
2023-06-16T02:28:56.079Z,0.86
2023-06-16T02:29:56.154Z,0.86
2023-06-16T02:30:56.234Z,0.86
2023-06-16T02:31:56.278Z,0.86
2023-06-16T02:33:02.521Z,0.84
2023-06-16T02:33:56.286Z,0.84
2023-06-16T02:34:56.322Z,0.84
2023-06-16T02:35:56.285Z,0.84
2023-06-16T02:36:55.261Z,0.84
2023-06-16T02:37:56.339Z,0.85
2023-06-16T02:38:56.262Z,0.84
2023-06-16T02:39:56.271Z,0.85
2023-06-16T02:40:55.265Z,0.86
2023-06-16T02:41:56.300Z,0.86
2023-06-16T02:42:56.364Z,0.83
2023-06-16T02:43:55.407Z,0.84
2023-06-16T02:44:55.448Z,0.85
2023-06-16T02:45:55.533Z,0.84
2023-06-16T02:46:56.625Z,0.83
2023-06-16T02:47:56.721Z,0.83
2023-06-16T02:48:56.699Z,0.84
2023-06-16T02:49:55.838Z,0.84
2023-06-16T02:50:56.842Z,0.85
2023-06-16T02:51:56.916Z,0.84
2023-06-16T02:52:56.955Z,0.85
2023-06-16T02:53:56.014Z,0.84
2023-06-16T02:54:57.061Z,0.86
2023-06-16T02:55:57.124Z,0.84
2023-06-16T02:56:57.180Z,0.82
2023-06-16T02:57:57.249Z,0.84
2023-06-16T02:58:57.270Z,0.84
2023-06-16T02:59:57.302Z,0.84
2023-06-16T03:00:57.389Z,0.86
2023-06-16T03:01:57.412Z,0.84
2023-06-16T03:02:57.544Z,0.85
2023-06-16T03:03:57.527Z,0.85
2023-06-16T03:04:57.599Z,0.86
2023-06-16T03:05:57.645Z,0.86
2023-06-16T03:06:57.742Z,0.83
2023-06-16T03:07:56.776Z,0.83
2023-06-16T03:08:57.838Z,0.85
2023-06-16T03:09:57.867Z,0.85
2023-06-16T03:10:57.952Z,0.85
2023-06-16T03:11:57.041Z,0.85
2023-06-16T03:12:57.061Z,0.83
2023-06-16T03:13:58.136Z,0.83
2023-06-16T03:14:58.183Z,0.82
2023-06-16T03:15:57.208Z,0.82
2023-06-16T03:16:57.273Z,0.83
2023-06-16T03:17:59.966Z,0.82
2023-06-16T03:18:58.332Z,0.82
2023-06-16T03:19:58.305Z,0.82
2023-06-16T03:20:58.315Z,0.83
2023-06-16T03:21:57.296Z,0.83
2023-06-16T03:22:58.309Z,0.82
2023-06-16T03:23:58.295Z,0.82
2023-06-16T03:24:58.270Z,0.83
2023-06-16T03:25:58.258Z,0.82
2023-06-16T03:26:58.320Z,0.82
2023-06-16T03:27:58.274Z,0.83
2023-06-16T03:28:58.247Z,0.83
2023-06-16T03:29:58.237Z,0.81
2023-06-16T03:30:58.218Z,0.82
2023-06-16T03:31:58.220Z,0.84
2023-06-16T03:32:58.253Z,0.83
2023-06-16T03:34:01.955Z,0.82
2023-06-16T03:34:58.197Z,0.82
2023-06-16T03:35:57.184Z,0.82
2023-06-16T03:36:58.192Z,0.80
2023-06-16T03:37:58.191Z,0.82
2023-06-16T03:38:58.198Z,0.81
2023-06-16T03:39:58.155Z,0.82
2023-06-16T03:40:58.168Z,0.82
2023-06-16T03:41:58.162Z,0.80
2023-06-16T03:42:58.147Z,0.82
2023-06-16T03:43:58.160Z,0.83
2023-06-16T03:44:58.128Z,0.81
2023-06-16T03:45:58.209Z,0.80
2023-06-16T03:46:58.188Z,0.81
2023-06-16T03:47:58.347Z,0.80
2023-06-16T03:48:58.254Z,0.82
2023-06-16T03:49:57.305Z,0.82
2023-06-16T03:50:58.358Z,0.79
2023-06-16T03:51:57.418Z,0.80
2023-06-16T03:53:14.794Z,0.83
2023-06-16T03:53:58.451Z,0.83
2023-06-16T03:54:58.513Z,0.83
2023-06-16T03:55:57.450Z,0.83
2023-06-16T03:56:58.472Z,0.83
2023-06-16T03:57:58.438Z,0.82
2023-06-16T03:58:58.424Z,0.84
2023-06-16T03:59:58.412Z,0.79
2023-06-16T04:00:58.405Z,0.81
2023-06-16T04:01:58.391Z,0.82
2023-06-16T04:02:58.545Z,0.81
2023-06-16T04:03:57.430Z,0.78
2023-06-16T04:04:58.374Z,0.81
2023-06-16T04:05:58.389Z,0.80
2023-06-16T04:06:58.361Z,0.80
2023-06-16T04:07:58.409Z,0.80
2023-06-16T04:08:57.352Z,0.81
2023-06-16T04:09:58.357Z,0.79
2023-06-16T04:10:58.360Z,0.79
2023-06-16T04:11:58.348Z,0.79
2023-06-16T04:12:58.322Z,0.82
2023-06-16T04:13:57.358Z,0.79
2023-06-16T04:14:57.296Z,0.79
2023-06-16T04:15:57.293Z,0.80
2023-06-16T04:16:58.301Z,0.80
2023-06-16T04:17:58.314Z,0.79
2023-06-16T04:18:58.300Z,0.79
2023-06-16T04:19:58.310Z,0.79
2023-06-16T04:20:58.301Z,0.81
2023-06-16T04:21:58.923Z,0.78
2023-06-16T04:22:58.256Z,0.79
2023-06-16T04:23:57.261Z,0.77
2023-06-16T04:24:58.216Z,0.77
2023-06-16T04:25:58.243Z,0.79
2023-06-16T04:26:58.235Z,0.78
2023-06-16T04:27:58.271Z,0.79
2023-06-16T04:28:58.195Z,0.77
2023-06-16T04:29:58.182Z,0.79
2023-06-16T04:30:58.180Z,0.78
2023-06-16T04:31:58.204Z,0.79
2023-06-16T04:32:58.207Z,0.78
2023-06-16T04:33:58.154Z,0.78
2023-06-16T04:34:58.138Z,0.78
2023-06-16T04:35:58.148Z,0.78
2023-06-16T04:36:58.194Z,0.78
2023-06-16T04:37:58.264Z,0.77
2023-06-16T04:38:58.279Z,0.79
2023-06-16T04:39:58.307Z,0.78
2023-06-16T04:40:58.366Z,0.79
2023-06-16T04:41:57.418Z,0.78
2023-06-16T04:42:58.503Z,0.78
2023-06-16T04:43:58.486Z,0.79
2023-06-16T04:44:57.534Z,0.79
2023-06-16T04:45:58.644Z,0.78
2023-06-16T04:46:58.603Z,0.79
2023-06-16T04:47:58.651Z,0.78
2023-06-16T04:48:57.644Z,0.78
2023-06-16T04:49:58.669Z,0.78
2023-06-16T04:50:57.688Z,0.78
2023-06-16T04:51:58.678Z,0.77
2023-06-16T04:52:58.677Z,0.77
2023-06-16T04:53:58.725Z,0.77
2023-06-16T04:54:57.751Z,0.78
2023-06-16T04:55:57.775Z,0.79
2023-06-16T04:56:57.806Z,0.79
2023-06-16T04:57:58.876Z,0.76
2023-06-16T04:58:58.884Z,0.77
2023-06-16T04:59:57.886Z,0.78
2023-06-16T05:00:58.930Z,0.78
2023-06-16T05:01:58.906Z,0.76
2023-06-16T05:02:58.983Z,0.76
2023-06-16T05:03:59.059Z,0.77
2023-06-16T05:04:57.937Z,0.77
2023-06-16T05:05:58.922Z,0.77
2023-06-16T05:06:58.936Z,0.78
2023-06-16T05:07:59.029Z,0.78
2023-06-16T05:08:58.001Z,0.77
2023-06-16T05:09:58.970Z,0.77
2023-06-16T05:10:59.145Z,0.78
2023-06-16T05:11:59.280Z,0.77
2023-06-16T05:12:58.979Z,0.77
2023-06-16T05:13:59.029Z,0.76
2023-06-16T05:14:58.951Z,0.77
2023-06-16T05:15:58.947Z,0.76
2023-06-16T05:16:57.975Z,0.77
2023-06-16T05:17:59.017Z,0.77
2023-06-16T05:18:59.217Z,0.76
2023-06-16T05:19:58.999Z,0.76
2023-06-16T05:20:58.025Z,0.78
2023-06-16T05:21:59.068Z,0.77
2023-06-16T05:22:59.069Z,0.77
2023-06-16T05:23:59.177Z,0.78
2023-06-16T05:24:59.219Z,0.78
2023-06-16T05:25:59.137Z,0.78
2023-06-16T05:26:59.150Z,0.77
2023-06-16T05:27:59.204Z,0.77
2023-06-16T05:28:59.219Z,0.76
2023-06-16T05:30:01.073Z,0.77
2023-06-16T05:30:59.332Z,0.77
2023-06-16T05:31:59.245Z,0.78
2023-06-16T05:32:59.311Z,0.78
2023-06-16T05:33:59.222Z,0.77
2023-06-16T05:34:59.236Z,0.76
2023-06-16T05:35:59.523Z,0.77
2023-06-16T05:36:59.212Z,0.78
2023-06-16T05:38:05.912Z,0.78
2023-06-16T05:38:59.181Z,0.78
2023-06-16T05:39:58.193Z,0.78
2023-06-16T05:40:59.163Z,0.79
2023-06-16T05:41:59.160Z,0.79
2023-06-16T05:42:59.158Z,0.79
2023-06-16T05:43:59.188Z,0.78
2023-06-16T05:44:59.169Z,0.78
2023-06-16T05:45:59.130Z,0.76
2023-06-16T05:46:58.144Z,0.77
2023-06-16T05:47:59.164Z,0.79
2023-06-16T05:48:59.160Z,0.77
2023-06-16T05:49:59.093Z,0.76
2023-06-16T05:50:59.096Z,0.77
2023-06-16T05:51:59.118Z,0.78
2023-06-16T05:52:58.085Z,0.77
2023-06-16T05:53:59.126Z,0.76
2023-06-16T05:54:59.157Z,0.77
2023-06-16T05:55:59.535Z,0.75
2023-06-16T05:56:58.280Z,0.77
2023-06-16T05:57:59.348Z,0.74
2023-06-16T05:58:59.418Z,0.75
2023-06-16T05:59:58.468Z,0.77
2023-06-16T06:00:59.504Z,0.76
2023-06-16T06:01:59.604Z,0.76
2023-06-16T06:02:59.705Z,0.75
2023-06-16T06:04:00.152Z,0.76
2023-06-16T06:04:59.786Z,0.77
2023-06-16T06:05:59.858Z,0.75
2023-06-16T06:06:58.872Z,0.76
2023-06-16T06:07:59.928Z,0.76
2023-06-16T06:08:59.997Z,0.76
2023-06-16T06:10:00.042Z,0.76
2023-06-16T06:11:00.132Z,0.75
2023-06-16T06:12:00.182Z,0.75
2023-06-16T06:13:00.206Z,0.75
2023-06-16T06:13:59.273Z,0.75
2023-06-16T06:15:00.304Z,0.74
2023-06-16T06:16:00.390Z,0.73
2023-06-16T06:17:00.424Z,0.72
2023-06-16T06:18:00.533Z,0.72
2023-06-16T06:19:00.511Z,0.72
2023-06-16T06:20:00.549Z,0.73
2023-06-16T06:20:59.596Z,0.73
2023-06-16T06:21:59.669Z,0.73
2023-06-16T06:23:00.687Z,0.74
2023-06-16T06:23:59.778Z,0.74
2023-06-16T06:25:00.792Z,0.73
2023-06-16T06:25:59.881Z,0.75
2023-06-16T06:27:00.905Z,0.74
2023-06-16T06:28:00.964Z,0.75
2023-06-16T06:29:01.030Z,0.76
2023-06-16T06:30:01.041Z,0.75
2023-06-16T06:31:01.112Z,0.74
2023-06-16T06:32:01.151Z,0.74
2023-06-16T06:33:01.300Z,0.73
2023-06-16T06:34:01.295Z,0.76
2023-06-16T06:35:01.956Z,0.76
2023-06-16T06:36:01.474Z,0.75
2023-06-16T06:37:01.456Z,0.76
2023-06-16T06:38:01.503Z,0.73
2023-06-16T06:39:01.571Z,0.75
2023-06-16T06:40:01.658Z,0.76
2023-06-16T06:41:01.694Z,0.75
2023-06-16T06:42:01.723Z,0.75
2023-06-16T06:43:01.764Z,0.75
2023-06-16T06:44:01.839Z,0.74
2023-06-16T06:45:00.865Z,0.76
2023-06-16T06:46:02.019Z,0.74
2023-06-16T06:47:01.981Z,0.74
2023-06-16T06:48:02.066Z,0.75
2023-06-16T06:49:02.123Z,0.75
2023-06-16T06:50:01.190Z,0.73
2023-06-16T06:51:02.221Z,0.73
2023-06-16T06:52:02.247Z,0.75
2023-06-16T06:53:02.325Z,0.75
2023-06-16T06:54:02.436Z,0.75
2023-06-16T06:55:01.485Z,0.76
2023-06-16T06:56:02.439Z,0.75
2023-06-16T06:57:02.470Z,0.73
2023-06-16T06:58:02.541Z,0.75
2023-06-16T06:59:01.940Z,0.74
2023-06-16T07:00:02.614Z,0.75
2023-06-16T07:01:02.671Z,0.75
2023-06-16T07:02:01.767Z,0.75
2023-06-16T07:03:02.951Z,0.75
2023-06-16T07:04:01.983Z,0.75
2023-06-16T07:05:01.883Z,0.74
2023-06-16T07:06:03.021Z,0.75
2023-06-16T07:07:03.046Z,0.74
2023-06-16T07:08:02.054Z,0.74
2023-06-16T07:09:03.156Z,0.74
2023-06-16T07:10:03.151Z,0.75
2023-06-16T07:11:03.234Z,0.75
2023-06-16T07:12:03.274Z,0.73
2023-06-16T07:13:03.333Z,0.72
2023-06-16T07:14:03.379Z,0.74
2023-06-16T07:15:03.432Z,0.73
2023-06-16T07:16:03.500Z,0.74
2023-06-16T07:17:03.558Z,0.73
2023-06-16T07:18:03.719Z,0.74
2023-06-16T07:19:03.703Z,0.74
2023-06-16T07:20:03.737Z,0.72
2023-06-16T07:21:02.788Z,0.73
2023-06-16T07:22:03.874Z,0.73
2023-06-16T07:23:03.879Z,0.72
2023-06-16T07:24:04.017Z,0.73
2023-06-16T07:25:03.989Z,0.73
2023-06-16T07:26:04.048Z,0.74
2023-06-16T07:27:03.073Z,0.72
2023-06-16T07:28:04.129Z,0.71
2023-06-16T07:29:06.400Z,0.72
2023-06-16T07:30:04.169Z,0.72
2023-06-16T07:31:04.148Z,0.71
2023-06-16T07:32:04.153Z,0.72
2023-06-16T07:33:04.209Z,0.72
2023-06-16T07:34:03.147Z,0.70
2023-06-16T07:35:03.132Z,0.73
2023-06-16T07:36:04.113Z,0.72
2023-06-16T07:37:04.125Z,0.71
2023-06-16T07:38:04.146Z,0.71
2023-06-16T07:39:03.111Z,0.71
2023-06-16T07:40:05.817Z,0.69
2023-06-16T07:41:04.078Z,0.70
2023-06-16T07:42:04.080Z,0.72
2023-06-16T07:43:04.081Z,0.70
2023-06-16T07:44:04.081Z,0.70
2023-06-16T07:45:03.088Z,0.70
2023-06-16T07:46:03.083Z,0.69
2023-06-16T07:47:04.032Z,0.68
2023-06-16T07:48:04.086Z,0.68
2023-06-16T07:49:04.478Z,0.69
2023-06-16T07:50:04.045Z,0.67
2023-06-16T07:51:04.012Z,0.67
2023-06-16T07:52:03.018Z,0.69
2023-06-16T07:53:03.005Z,0.69
2023-06-16T07:54:04.500Z,0.67
2023-06-16T07:55:03.977Z,0.67
2023-06-16T07:56:03.979Z,0.69
2023-06-16T07:57:03.969Z,0.68
2023-06-16T07:58:04.004Z,0.68
2023-06-16T07:59:02.960Z,0.68
2023-06-16T08:00:03.945Z,0.70
2023-06-16T08:01:04.003Z,0.68
2023-06-16T08:02:03.925Z,0.70
2023-06-16T08:03:04.019Z,0.71
2023-06-16T08:04:03.318Z,0.69
2023-06-16T08:05:04.065Z,0.70
2023-06-16T08:06:02.945Z,0.71
2023-06-16T08:07:03.005Z,0.69
2023-06-16T08:08:04.050Z,0.72
2023-06-16T08:09:04.189Z,0.71
2023-06-16T08:10:04.186Z,0.70
2023-06-16T08:11:04.211Z,0.71
2023-06-16T08:12:03.257Z,0.72
2023-06-16T08:13:04.313Z,0.70
2023-06-16T08:14:03.376Z,0.71
2023-06-16T08:15:04.416Z,0.72
2023-06-16T08:16:04.504Z,0.70
2023-06-16T08:17:04.528Z,0.70
2023-06-16T08:18:03.614Z,0.72
2023-06-16T08:19:04.636Z,0.70
2023-06-16T08:20:04.668Z,0.71
2023-06-16T08:21:04.626Z,0.72
2023-06-16T08:22:04.772Z,0.72
2023-06-16T08:23:04.821Z,0.70
2023-06-16T08:24:03.901Z,0.73
2023-06-16T08:25:04.932Z,0.70
2023-06-16T08:26:05.029Z,0.72
2023-06-16T08:27:04.024Z,0.71
2023-06-16T08:28:05.088Z,0.70
2023-06-16T08:29:05.127Z,0.73
2023-06-16T08:30:04.204Z,0.71
2023-06-16T08:31:04.231Z,0.70
2023-06-16T08:32:05.293Z,0.71
2023-06-16T08:33:04.390Z,0.72
2023-06-16T08:34:05.390Z,0.70
2023-06-16T08:35:05.476Z,0.72
2023-06-16T08:36:05.502Z,0.73
2023-06-16T08:37:14.100Z,0.72
2023-06-16T08:38:05.562Z,0.72
2023-06-16T08:39:04.540Z,0.72
2023-06-16T08:40:05.545Z,0.73
2023-06-16T08:41:04.537Z,0.74
2023-06-16T08:42:05.564Z,0.73
2023-06-16T08:43:05.517Z,0.74
2023-06-16T08:44:05.510Z,0.74
2023-06-16T08:45:05.505Z,0.73
2023-06-16T08:46:05.551Z,0.74
2023-06-16T08:47:05.473Z,0.75
2023-06-16T08:48:04.530Z,0.74
2023-06-16T08:49:05.474Z,0.74
2023-06-16T08:50:04.463Z,0.76
2023-06-16T08:51:05.454Z,0.76
2023-06-16T08:52:05.466Z,0.76
2023-06-16T08:53:04.467Z,0.77
2023-06-16T08:54:05.430Z,0.76
2023-06-16T08:55:04.436Z,0.77
2023-06-16T08:56:05.408Z,0.78
2023-06-16T08:57:05.410Z,0.76
2023-06-16T08:58:05.447Z,0.80
2023-06-16T08:59:05.389Z,0.79
2023-06-16T09:00:04.378Z,0.80
2023-06-16T09:01:04.385Z,0.80
2023-06-16T09:02:05.370Z,0.78
2023-06-16T09:03:05.408Z,0.77
2023-06-16T09:04:05.456Z,0.80
2023-06-16T09:05:05.466Z,0.80
2023-06-16T09:06:05.506Z,0.80
2023-06-16T09:07:04.550Z,0.80
2023-06-16T09:08:05.971Z,0.81
2023-06-16T09:09:05.663Z,0.79
2023-06-16T09:10:05.705Z,0.81
2023-06-16T09:11:05.738Z,0.81
2023-06-16T09:12:04.842Z,0.80
2023-06-16T09:13:05.830Z,0.79
2023-06-16T09:14:04.939Z,0.83
2023-06-16T09:15:05.941Z,0.81
2023-06-16T09:16:06.011Z,0.82
2023-06-16T09:17:05.037Z,0.81
2023-06-16T09:18:05.084Z,0.81
2023-06-16T09:19:06.090Z,0.82
2023-06-16T09:20:06.143Z,0.80
2023-06-16T09:21:06.189Z,0.82
2023-06-16T09:22:06.220Z,0.79
2023-06-16T09:23:06.262Z,0.82
2023-06-16T09:24:06.386Z,0.82
2023-06-16T09:25:06.392Z,0.82
2023-06-16T09:26:06.477Z,0.83
2023-06-16T09:27:06.428Z,0.81
2023-06-16T09:28:06.525Z,0.83
2023-06-16T09:29:06.530Z,0.84
2023-06-16T09:30:06.611Z,0.84
2023-06-16T09:31:11.707Z,0.85
2023-06-16T09:32:06.609Z,0.85
2023-06-16T09:33:05.635Z,0.85
2023-06-16T09:34:06.588Z,0.84
2023-06-16T09:35:06.600Z,0.82
2023-06-16T09:36:06.576Z,0.84
2023-06-16T09:37:06.594Z,0.82
2023-06-16T09:38:06.616Z,0.83
2023-06-16T09:39:05.569Z,0.81
2023-06-16T09:40:05.567Z,0.83
2023-06-16T09:41:05.579Z,0.83
2023-06-16T09:42:06.553Z,0.84
2023-06-16T09:43:06.529Z,0.87
2023-06-16T09:44:06.536Z,0.84
2023-06-16T09:45:06.023Z,0.85
2023-06-16T09:46:06.595Z,0.85
2023-06-16T09:47:06.523Z,0.83
2023-06-16T09:48:06.723Z,0.85
2023-06-16T09:49:05.556Z,0.84
2023-06-16T09:50:06.505Z,0.82
2023-06-16T09:51:06.482Z,0.80
2023-06-16T09:52:06.497Z,0.76
2023-06-16T09:53:05.474Z,0.72
2023-06-16T09:54:06.465Z,0.74
2023-06-16T09:55:05.482Z,0.72
2023-06-16T09:56:05.464Z,0.70
2023-06-16T09:57:06.439Z,0.67
2023-06-16T09:58:06.452Z,0.69
2023-06-16T09:59:05.465Z,0.71
2023-06-16T10:00:06.445Z,0.72
2023-06-16T10:01:06.418Z,0.71
2023-06-16T10:02:06.451Z,0.70
2023-06-16T10:03:05.476Z,0.69
2023-06-16T10:04:06.434Z,0.67
2023-06-16T10:05:06.408Z,0.67
2023-06-16T10:06:06.385Z,0.66
2023-06-16T10:07:06.381Z,0.67
2023-06-16T10:08:05.419Z,0.68
2023-06-16T10:09:06.431Z,0.69
2023-06-16T10:10:05.504Z,0.67
2023-06-16T10:11:06.524Z,0.66
2023-06-16T10:12:05.554Z,0.67
2023-06-16T10:13:05.547Z,0.71
2023-06-16T10:14:05.589Z,0.74
2023-06-16T10:15:06.620Z,0.75
2023-06-16T10:16:06.639Z,0.79
2023-06-16T10:17:06.707Z,0.80
2023-06-16T10:18:09.623Z,0.84
2023-06-16T10:19:06.789Z,0.84
2023-06-16T10:20:06.670Z,0.84
2023-06-16T10:21:06.664Z,0.84
2023-06-16T10:22:07.823Z,0.85
2023-06-16T10:23:05.660Z,0.87
2023-06-16T10:24:06.675Z,0.85
2023-06-16T10:25:05.626Z,0.85
2023-06-16T10:26:06.633Z,0.85
2023-06-16T10:27:05.612Z,0.84
2023-06-16T10:28:06.687Z,0.83
2023-06-16T10:29:06.608Z,0.84
2023-06-16T10:30:06.586Z,0.87
2023-06-16T10:31:06.600Z,0.84
2023-06-16T10:32:06.584Z,0.84
2023-06-16T10:33:06.608Z,0.81
2023-06-16T10:34:06.607Z,0.82
2023-06-16T10:35:06.581Z,0.84
2023-06-16T10:37:05.545Z,0.82
2023-06-16T10:38:05.558Z,0.81
2023-06-16T10:39:06.529Z,0.82
2023-06-16T10:40:06.530Z,0.82
2023-06-16T10:41:06.548Z,0.83
2023-06-16T10:42:06.529Z,0.82
2023-06-16T10:43:06.512Z,0.81
2023-06-16T10:44:06.503Z,0.82
2023-06-16T10:45:05.529Z,0.81
2023-06-16T10:46:06.530Z,0.81
2023-06-16T10:47:06.720Z,0.79
2023-06-16T10:48:05.724Z,0.79
2023-06-16T10:49:06.495Z,0.79
2023-06-16T10:50:06.486Z,0.78
2023-06-16T10:51:06.560Z,0.78
2023-06-16T10:52:06.455Z,0.78
2023-06-16T10:53:06.428Z,0.77
2023-06-16T10:54:06.437Z,0.74
2023-06-16T10:55:06.413Z,0.70
2023-06-16T10:56:06.425Z,0.69
2023-06-16T10:57:11.197Z,0.66
2023-06-16T10:58:06.392Z,0.66
2023-06-16T10:59:06.395Z,0.64
2023-06-16T11:00:05.389Z,0.63
2023-06-16T11:01:06.636Z,0.61
2023-06-16T11:02:06.364Z,0.62
2023-06-16T11:03:06.402Z,0.61
2023-06-16T11:04:06.565Z,0.60
2023-06-16T11:05:06.348Z,0.61
2023-06-16T11:06:06.375Z,0.60
2023-06-16T11:07:14.092Z,0.62
2023-06-16T11:08:06.327Z,0.62
2023-06-16T11:09:05.312Z,0.64
2023-06-16T11:10:06.298Z,0.65
2023-06-16T11:11:06.543Z,0.69
2023-06-16T11:12:06.294Z,0.76
2023-06-16T11:13:06.304Z,0.77
2023-06-16T11:14:06.278Z,0.78
2023-06-16T11:15:06.298Z,0.78
2023-06-16T11:16:05.311Z,0.80
2023-06-16T11:17:06.245Z,0.80
2023-06-16T11:18:07.083Z,0.80
2023-06-16T11:19:06.235Z,0.78
2023-06-16T11:20:05.245Z,0.79
2023-06-16T11:21:06.251Z,0.78
2023-06-16T11:22:06.232Z,0.77
2023-06-16T11:23:06.214Z,0.77
2023-06-16T11:24:05.235Z,0.77
2023-06-16T11:25:06.201Z,0.78
2023-06-16T11:26:06.230Z,0.76
2023-06-16T11:27:05.183Z,0.77
2023-06-16T11:28:06.191Z,0.78
2023-06-16T11:29:06.187Z,0.76
2023-06-16T11:30:06.151Z,0.77
2023-06-16T11:31:06.179Z,0.78
2023-06-16T11:32:06.165Z,0.77
2023-06-16T11:33:05.171Z,0.78
2023-06-16T11:34:06.142Z,0.79
2023-06-16T11:35:06.146Z,0.79
2023-06-16T11:36:06.146Z,0.80
2023-06-16T11:37:06.120Z,0.80
2023-06-16T11:38:06.164Z,0.82
2023-06-16T11:39:06.112Z,0.83
2023-06-16T11:40:05.097Z,0.82
2023-06-16T11:41:11.718Z,0.82
2023-06-16T11:42:06.084Z,0.82
2023-06-16T11:43:06.088Z,0.82
2023-06-16T11:44:05.069Z,0.82
2023-06-16T11:45:06.101Z,0.83
2023-06-16T11:46:05.079Z,0.83
2023-06-16T11:47:06.133Z,0.84
2023-06-16T11:48:05.093Z,0.84
2023-06-16T11:49:05.024Z,0.84
2023-06-16T11:50:05.042Z,0.84
2023-06-16T11:51:06.041Z,0.82
2023-06-16T11:52:06.005Z,0.81
2023-06-16T11:53:06.002Z,0.82
2023-06-16T11:54:06.045Z,0.81
2023-06-16T11:55:05.992Z,0.80
2023-06-16T11:56:05.977Z,0.81
2023-06-16T11:57:05.973Z,0.81
2023-06-16T11:58:05.990Z,0.81
2023-06-16T11:59:05.958Z,0.80
2023-06-16T12:00:05.965Z,0.81
2023-06-16T12:01:05.984Z,0.81
2023-06-16T12:02:05.951Z,0.81
2023-06-16T12:03:05.016Z,0.81
2023-06-16T12:04:07.141Z,0.81
2023-06-16T12:05:05.967Z,0.81
2023-06-16T12:06:05.967Z,0.80
2023-06-16T12:07:06.068Z,0.81
2023-06-16T12:08:05.979Z,0.82
2023-06-16T12:09:06.004Z,0.81
2023-06-16T12:10:06.040Z,0.80
2023-06-16T12:11:06.013Z,0.80
2023-06-16T12:12:06.016Z,0.80
2023-06-16T12:13:06.020Z,0.79
2023-06-16T12:14:06.049Z,0.80
2023-06-16T12:15:06.052Z,0.83
2023-06-16T12:16:06.071Z,0.80
2023-06-16T12:17:06.077Z,0.81
2023-06-16T12:18:06.128Z,0.81
2023-06-16T12:19:06.116Z,0.79
2023-06-16T12:20:06.124Z,0.79
2023-06-16T12:21:05.150Z,0.75
2023-06-16T12:22:06.161Z,0.77
2023-06-16T12:23:06.186Z,0.77
2023-06-16T12:24:06.214Z,0.76
2023-06-16T12:25:06.194Z,0.73
2023-06-16T12:26:06.220Z,0.73
2023-06-16T12:27:06.208Z,0.72
2023-06-16T12:28:05.209Z,0.71
2023-06-16T12:29:05.237Z,0.71
2023-06-16T12:30:06.274Z,0.74
2023-06-16T12:31:05.276Z,0.75
2023-06-16T12:32:06.294Z,0.75
2023-06-16T12:33:06.293Z,0.75
2023-06-16T12:34:06.292Z,0.79
2023-06-16T12:35:06.336Z,0.80
2023-06-16T12:36:06.310Z,0.80
2023-06-16T12:37:06.328Z,0.80
2023-06-16T12:38:06.359Z,0.79
2023-06-16T12:39:06.350Z,0.79
2023-06-16T12:40:06.374Z,0.78
2023-06-16T12:41:06.381Z,0.77
2023-06-16T12:42:06.423Z,0.79
2023-06-16T12:43:06.392Z,0.78
2023-06-16T12:44:06.405Z,0.78
2023-06-16T12:45:06.439Z,0.80
2023-06-16T12:46:06.476Z,0.81
2023-06-16T12:47:05.453Z,0.83
2023-06-16T12:48:06.580Z,0.85
2023-06-16T12:49:06.485Z,0.85
2023-06-16T12:50:05.502Z,0.85
2023-06-16T12:51:06.525Z,0.84
2023-06-16T12:52:06.542Z,0.84
2023-06-16T12:53:06.574Z,0.82
2023-06-16T12:54:05.578Z,0.85
2023-06-16T12:55:05.588Z,0.82
2023-06-16T12:56:06.613Z,0.83
2023-06-16T12:57:06.641Z,0.81
2023-06-16T12:58:05.797Z,0.82
2023-06-16T12:59:06.677Z,0.83
2023-06-16T13:00:06.684Z,0.85
2023-06-16T13:01:06.758Z,0.84
2023-06-16T13:02:05.761Z,0.87
2023-06-16T13:03:06.763Z,0.87
2023-06-16T13:04:06.774Z,0.88
2023-06-16T13:05:06.800Z,0.87
2023-06-16T13:06:06.794Z,0.87
2023-06-16T13:07:06.815Z,0.88
2023-06-16T13:08:06.824Z,0.89
2023-06-16T13:09:06.881Z,0.85
2023-06-16T13:10:06.861Z,0.88
2023-06-16T13:11:05.900Z,0.87
2023-06-16T13:12:06.901Z,0.88
2023-06-16T13:13:05.930Z,0.88
2023-06-16T13:14:06.967Z,0.87
2023-06-16T13:15:06.966Z,0.88
2023-06-16T13:16:07.021Z,0.89
2023-06-16T13:17:05.998Z,0.88
2023-06-16T13:18:06.029Z,0.88
2023-06-16T13:19:06.035Z,0.89
2023-06-16T13:20:07.085Z,0.89